sensor_id;sensor_type;location;lat;lon;timestamp;P1;durP1;ratioP1;P2;durP2;ratioP2
10657;SDS011;5377;43.276;26.930;2024-03-29T00:00:22;10.15;;;5.03;;
10657;SDS011;5377;43.276;26.930;2024-03-29T00:02:48;11.73;;;6.45;;
10657;SDS011;5377;43.276;26.930;2024-03-29T00:05:14;13.93;;;7.80;;
10657;SDS011;5377;43.276;26.930;2024-03-29T00:07:39;15.60;;;6.32;;
10657;SDS011;5377;43.276;26.930;2024-03-29T00:10:05;13.45;;;5.68;;
10657;SDS011;5377;43.276;26.930;2024-03-29T00:12:32;19.27;;;6.43;;
10657;SDS011;5377;43.276;26.930;2024-03-29T00:14:58;18.35;;;5.82;;
10657;SDS011;5377;43.276;26.930;2024-03-29T00:17:24;21.13;;;7.22;;
10657;SDS011;5377;43.276;26.930;2024-03-29T00:19:49;15.52;;;5.22;;
10657;SDS011;5377;43.276;26.930;2024-03-29T00:22:15;18.38;;;6.13;;
10657;SDS011;5377;43.276;26.930;2024-03-29T00:24:40;14.48;;;6.05;;
10657;SDS011;5377;43.276;26.930;2024-03-29T00:27:06;16.48;;;5.50;;
10657;SDS011;5377;43.276;26.930;2024-03-29T00:29:33;12.55;;;5.18;;
10657;SDS011;5377;43.276;26.930;2024-03-29T00:31:59;14.48;;;5.50;;
10657;SDS011;5377;43.276;26.930;2024-03-29T00:34:24;15.63;;;4.50;;
10657;SDS011;5377;43.276;26.930;2024-03-29T00:36:50;12.07;;;5.28;;
10657;SDS011;5377;43.276;26.930;2024-03-29T00:39:16;19.30;;;5.90;;
10657;SDS011;5377;43.276;26.930;2024-03-29T00:41:41;18.95;;;6.55;;
10657;SDS011;5377;43.276;26.930;2024-03-29T00:44:07;18.33;;;5.93;;
10657;SDS011;5377;43.276;26.930;2024-03-29T00:46:34;16.92;;;5.32;;
10657;SDS011;5377;43.276;26.930;2024-03-29T00:49:00;17.63;;;6.35;;
10657;SDS011;5377;43.276;26.930;2024-03-29T00:51:25;14.82;;;5.82;;
10657;SDS011;5377;43.276;26.930;2024-03-29T00:53:51;18.05;;;6.10;;
10657;SDS011;5377;43.276;26.930;2024-03-29T00:56:17;16.90;;;6.07;;
10657;SDS011;5377;43.276;26.930;2024-03-29T00:58:42;18.48;;;6.70;;
10657;SDS011;5377;43.276;26.930;2024-03-29T01:01:08;19.70;;;7.05;;
10657;SDS011;5377;43.276;26.930;2024-03-29T01:03:35;18.73;;;6.85;;
10657;SDS011;5377;43.276;26.930;2024-03-29T01:06:01;18.02;;;7.03;;
10657;SDS011;5377;43.276;26.930;2024-03-29T01:08:26;18.50;;;7.65;;
10657;SDS011;5377;43.276;26.930;2024-03-29T01:10:52;18.55;;;7.28;;
10657;SDS011;5377;43.276;26.930;2024-03-29T01:13:18;22.67;;;6.82;;
10657;SDS011;5377;43.276;26.930;2024-03-29T01:15:44;24.30;;;7.00;;
10657;SDS011;5377;43.276;26.930;2024-03-29T01:18:09;17.65;;;6.97;;
10657;SDS011;5377;43.276;26.930;2024-03-29T01:20:37;19.05;;;7.15;;
10657;SDS011;5377;43.276;26.930;2024-03-29T01:23:02;16.92;;;7.07;;
10657;SDS011;5377;43.276;26.930;2024-03-29T01:25:28;22.38;;;7.57;;
10657;SDS011;5377;43.276;26.930;2024-03-29T01:27:54;21.48;;;6.95;;
10657;SDS011;5377;43.276;26.930;2024-03-29T01:30:19;16.20;;;6.95;;
10657;SDS011;5377;43.276;26.930;2024-03-29T01:32:45;17.80;;;7.05;;
10657;SDS011;5377;43.276;26.930;2024-03-29T01:35:10;26.67;;;7.53;;
10657;SDS011;5377;43.276;26.930;2024-03-29T01:37:37;17.13;;;6.72;;
10657;SDS011;5377;43.276;26.930;2024-03-29T01:40:04;23.70;;;7.15;;
10657;SDS011;5377;43.276;26.930;2024-03-29T01:42:30;26.42;;;8.35;;
10657;SDS011;5377;43.276;26.930;2024-03-29T01:44:55;23.25;;;6.97;;
10657;SDS011;5377;43.276;26.930;2024-03-29T01:47:22;21.88;;;8.30;;
10657;SDS011;5377;43.276;26.930;2024-03-29T01:49:49;18.08;;;8.85;;
10657;SDS011;5377;43.276;26.930;2024-03-29T01:52:16;23.13;;;8.45;;
10657;SDS011;5377;43.276;26.930;2024-03-29T01:54:45;29.17;;;8.55;;
10657;SDS011;5377;43.276;26.930;2024-03-29T01:57:13;16.88;;;8.75;;
10657;SDS011;5377;43.276;26.930;2024-03-29T01:59:40;31.23;;;10.27;;
10657;SDS011;5377;43.276;26.930;2024-03-29T02:02:09;26.75;;;9.20;;
10657;SDS011;5377;43.276;26.930;2024-03-29T02:04:36;30.85;;;9.07;;
10657;SDS011;5377;43.276;26.930;2024-03-29T02:07:03;28.95;;;9.98;;
10657;SDS011;5377;43.276;26.930;2024-03-29T02:09:30;22.85;;;8.45;;
10657;SDS011;5377;43.276;26.930;2024-03-29T02:11:59;27.30;;;8.52;;
10657;SDS011;5377;43.276;26.930;2024-03-29T02:14:25;25.38;;;9.20;;
10657;SDS011;5377;43.276;26.930;2024-03-29T02:16:52;26.40;;;9.85;;
10657;SDS011;5377;43.276;26.930;2024-03-29T02:19:19;28.92;;;10.13;;
10657;SDS011;5377;43.276;26.930;2024-03-29T02:21:46;29.42;;;10.30;;
10657;SDS011;5377;43.276;26.930;2024-03-29T02:24:16;19.50;;;9.18;;
10657;SDS011;5377;43.276;26.930;2024-03-29T02:26:43;23.55;;;10.57;;
10657;SDS011;5377;43.276;26.930;2024-03-29T02:29:10;33.25;;;11.10;;
10657;SDS011;5377;43.276;26.930;2024-03-29T02:31:37;25.95;;;10.50;;
10657;SDS011;5377;43.276;26.930;2024-03-29T02:34:04;23.92;;;10.13;;
10657;SDS011;5377;43.276;26.930;2024-03-29T02:36:33;23.40;;;9.93;;
10657;SDS011;5377;43.276;26.930;2024-03-29T02:38:59;24.88;;;7.93;;
10657;SDS011;5377;43.276;26.930;2024-03-29T02:41:27;20.10;;;9.70;;
10657;SDS011;5377;43.276;26.930;2024-03-29T02:43:55;24.27;;;8.73;;
10657;SDS011;5377;43.276;26.930;2024-03-29T02:46:22;36.40;;;10.40;;
10657;SDS011;5377;43.276;26.930;2024-03-29T02:48:48;34.15;;;10.60;;
10657;SDS011;5377;43.276;26.930;2024-03-29T02:51:14;25.75;;;9.27;;
10657;SDS011;5377;43.276;26.930;2024-03-29T02:53:41;32.28;;;8.93;;
10657;SDS011;5377;43.276;26.930;2024-03-29T02:56:06;25.13;;;9.75;;
10657;SDS011;5377;43.276;26.930;2024-03-29T02:58:35;24.38;;;9.45;;
10657;SDS011;5377;43.276;26.930;2024-03-29T03:01:05;22.95;;;8.80;;
10657;SDS011;5377;43.276;26.930;2024-03-29T03:03:31;26.63;;;11.05;;
10657;SDS011;5377;43.276;26.930;2024-03-29T03:05:57;35.75;;;11.32;;
10657;SDS011;5377;43.276;26.930;2024-03-29T03:08:24;33.05;;;10.80;;
10657;SDS011;5377;43.276;26.930;2024-03-29T03:11:08;30.38;;;10.32;;
10657;SDS011;5377;43.276;26.930;2024-03-29T03:13:36;27.40;;;10.52;;
10657;SDS011;5377;43.276;26.930;2024-03-29T03:16:03;28.75;;;9.43;;
10657;SDS011;5377;43.276;26.930;2024-03-29T03:18:30;21.42;;;8.18;;
10657;SDS011;5377;43.276;26.930;2024-03-29T03:20:56;21.33;;;7.93;;
10657;SDS011;5377;43.276;26.930;2024-03-29T03:23:23;24.17;;;9.00;;
10657;SDS011;5377;43.276;26.930;2024-03-29T03:25:53;26.70;;;10.60;;
10657;SDS011;5377;43.276;26.930;2024-03-29T03:28:20;29.55;;;10.05;;
10657;SDS011;5377;43.276;26.930;2024-03-29T03:30:48;26.85;;;8.43;;
10657;SDS011;5377;43.276;26.930;2024-03-29T03:33:14;25.25;;;9.05;;
10657;SDS011;5377;43.276;26.930;2024-03-29T03:35:41;17.17;;;8.52;;
10657;SDS011;5377;43.276;26.930;2024-03-29T03:38:07;16.52;;;7.15;;
10657;SDS011;5377;43.276;26.930;2024-03-29T03:40:33;25.30;;;7.70;;
10657;SDS011;5377;43.276;26.930;2024-03-29T03:43:00;22.85;;;7.63;;
10657;SDS011;5377;43.276;26.930;2024-03-29T03:45:26;17.17;;;7.75;;
10657;SDS011;5377;43.276;26.930;2024-03-29T03:47:54;19.90;;;7.57;;
10657;SDS011;5377;43.276;26.930;2024-03-29T03:50:20;11.40;;;7.10;;
10657;SDS011;5377;43.276;26.930;2024-03-29T03:52:46;17.20;;;6.70;;
10657;SDS011;5377;43.276;26.930;2024-03-29T03:55:12;20.90;;;8.32;;
10657;SDS011;5377;43.276;26.930;2024-03-29T03:57:39;15.82;;;7.07;;
10657;SDS011;5377;43.276;26.930;2024-03-29T04:00:05;17.20;;;7.65;;
10657;SDS011;5377;43.276;26.930;2024-03-29T04:02:32;21.48;;;8.07;;
10657;SDS011;5377;43.276;26.930;2024-03-29T04:04:59;19.77;;;7.90;;
10657;SDS011;5377;43.276;26.930;2024-03-29T04:07:25;21.30;;;10.52;;
10657;SDS011;5377;43.276;26.930;2024-03-29T04:09:51;19.85;;;9.75;;
10657;SDS011;5377;43.276;26.930;2024-03-29T04:12:18;32.47;;;16.67;;
10657;SDS011;5377;43.276;26.930;2024-03-29T04:14:44;18.67;;;7.63;;
10657;SDS011;5377;43.276;26.930;2024-03-29T04:17:10;10.57;;;5.60;;
10657;SDS011;5377;43.276;26.930;2024-03-29T04:19:36;8.73;;;2.67;;
10657;SDS011;5377;43.276;26.930;2024-03-29T04:22:04;8.77;;;3.45;;
10657;SDS011;5377;43.276;26.930;2024-03-29T04:24:30;8.00;;;2.38;;
10657;SDS011;5377;43.276;26.930;2024-03-29T04:26:57;7.65;;;1.25;;
10657;SDS011;5377;43.276;26.930;2024-03-29T04:29:24;7.70;;;2.28;;
10657;SDS011;5377;43.276;26.930;2024-03-29T04:31:50;7.78;;;1.40;;
10657;SDS011;5377;43.276;26.930;2024-03-29T04:34:16;7.35;;;1.45;;
10657;SDS011;5377;43.276;26.930;2024-03-29T04:36:43;10.15;;;1.13;;
10657;SDS011;5377;43.276;26.930;2024-03-29T04:39:11;3.53;;;1.10;;
10657;SDS011;5377;43.276;26.930;2024-03-29T04:41:38;7.80;;;1.83;;
10657;SDS011;5377;43.276;26.930;2024-03-29T04:44:04;7.82;;;1.25;;
10657;SDS011;5377;43.276;26.930;2024-03-29T04:46:33;4.82;;;1.08;;
10657;SDS011;5377;43.276;26.930;2024-03-29T04:49:00;5.63;;;1.05;;
10657;SDS011;5377;43.276;26.930;2024-03-29T04:51:26;12.68;;;1.73;;
10657;SDS011;5377;43.276;26.930;2024-03-29T04:53:53;5.45;;;1.52;;
10657;SDS011;5377;43.276;26.930;2024-03-29T04:56:21;7.90;;;1.13;;
10657;SDS011;5377;43.276;26.930;2024-03-29T04:58:48;2.97;;;0.82;;
10657;SDS011;5377;43.276;26.930;2024-03-29T05:01:15;8.50;;;1.92;;
10657;SDS011;5377;43.276;26.930;2024-03-29T05:03:42;3.60;;;1.17;;
10657;SDS011;5377;43.276;26.930;2024-03-29T05:06:08;6.20;;;1.55;;
10657;SDS011;5377;43.276;26.930;2024-03-29T05:08:35;4.00;;;1.00;;
10657;SDS011;5377;43.276;26.930;2024-03-29T05:11:02;9.85;;;1.52;;
10657;SDS011;5377;43.276;26.930;2024-03-29T05:13:30;6.45;;;1.63;;
10657;SDS011;5377;43.276;26.930;2024-03-29T05:15:57;2.10;;;0.88;;
10657;SDS011;5377;43.276;26.930;2024-03-29T05:18:24;5.53;;;1.10;;
10657;SDS011;5377;43.276;26.930;2024-03-29T05:20:50;7.93;;;1.73;;
10657;SDS011;5377;43.276;26.930;2024-03-29T05:23:17;6.80;;;1.52;;
10657;SDS011;5377;43.276;26.930;2024-03-29T05:25:44;7.32;;;0.90;;
10657;SDS011;5377;43.276;26.930;2024-03-29T05:28:13;2.50;;;1.33;;
10657;SDS011;5377;43.276;26.930;2024-03-29T05:30:41;5.88;;;1.48;;
10657;SDS011;5377;43.276;26.930;2024-03-29T05:33:09;5.25;;;0.88;;
10657;SDS011;5377;43.276;26.930;2024-03-29T05:35:36;3.90;;;0.68;;
10657;SDS011;5377;43.276;26.930;2024-03-29T05:38:03;1.88;;;0.93;;
10657;SDS011;5377;43.276;26.930;2024-03-29T05:40:29;7.85;;;0.90;;
10657;SDS011;5377;43.276;26.930;2024-03-29T05:42:56;4.13;;;1.15;;
10657;SDS011;5377;43.276;26.930;2024-03-29T05:45:24;5.13;;;0.80;;
10657;SDS011;5377;43.276;26.930;2024-03-29T05:47:53;3.25;;;0.80;;
10657;SDS011;5377;43.276;26.930;2024-03-29T05:50:20;5.10;;;1.35;;
10657;SDS011;5377;43.276;26.930;2024-03-29T05:52:47;4.65;;;0.70;;
10657;SDS011;5377;43.276;26.930;2024-03-29T05:55:13;4.20;;;0.93;;
10657;SDS011;5377;43.276;26.930;2024-03-29T05:57:40;4.95;;;1.10;;
10657;SDS011;5377;43.276;26.930;2024-03-29T06:00:10;3.88;;;1.45;;
10657;SDS011;5377;43.276;26.930;2024-03-29T06:02:37;13.25;;;3.00;;
10657;SDS011;5377;43.276;26.930;2024-03-29T06:05:06;2.25;;;0.75;;
10657;SDS011;5377;43.276;26.930;2024-03-29T06:07:34;7.45;;;1.15;;
10657;SDS011;5377;43.276;26.930;2024-03-29T06:10:00;6.22;;;1.27;;
10657;SDS011;5377;43.276;26.930;2024-03-29T06:12:29;3.22;;;0.90;;
10657;SDS011;5377;43.276;26.930;2024-03-29T06:14:56;3.40;;;0.70;;
10657;SDS011;5377;43.276;26.930;2024-03-29T06:17:40;4.13;;;0.70;;
10657;SDS011;5377;43.276;26.930;2024-03-29T06:20:09;4.70;;;0.90;;
10657;SDS011;5377;43.276;26.930;2024-03-29T06:22:35;5.75;;;0.82;;
10657;SDS011;5377;43.276;26.930;2024-03-29T06:25:02;4.13;;;0.75;;
10657;SDS011;5377;43.276;26.930;2024-03-29T06:27:30;9.13;;;1.58;;
10657;SDS011;5377;43.276;26.930;2024-03-29T06:29:57;4.90;;;1.25;;
10657;SDS011;5377;43.276;26.930;2024-03-29T06:32:24;5.85;;;1.20;;
10657;SDS011;5377;43.276;26.930;2024-03-29T06:34:51;8.02;;;1.35;;
10657;SDS011;5377;43.276;26.930;2024-03-29T06:37:19;8.57;;;0.90;;
10657;SDS011;5377;43.276;26.930;2024-03-29T06:39:46;5.63;;;1.08;;
10657;SDS011;5377;43.276;26.930;2024-03-29T06:42:13;8.10;;;0.75;;
10657;SDS011;5377;43.276;26.930;2024-03-29T06:44:40;5.13;;;0.70;;
10657;SDS011;5377;43.276;26.930;2024-03-29T06:47:07;3.20;;;0.95;;
10657;SDS011;5377;43.276;26.930;2024-03-29T06:49:34;4.75;;;1.38;;
10657;SDS011;5377;43.276;26.930;2024-03-29T06:52:01;8.75;;;1.40;;
10657;SDS011;5377;43.276;26.930;2024-03-29T06:54:29;7.28;;;1.42;;
10657;SDS011;5377;43.276;26.930;2024-03-29T06:56:58;2.38;;;0.60;;
10657;SDS011;5377;43.276;26.930;2024-03-29T06:59:25;3.42;;;0.50;;
10657;SDS011;5377;43.276;26.930;2024-03-29T07:01:51;7.95;;;1.50;;
10657;SDS011;5377;43.276;26.930;2024-03-29T07:04:19;2.33;;;0.57;;
10657;SDS011;5377;43.276;26.930;2024-03-29T07:06:46;5.75;;;1.40;;
10657;SDS011;5377;43.276;26.930;2024-03-29T07:09:16;4.60;;;1.70;;
10657;SDS011;5377;43.276;26.930;2024-03-29T07:11:44;10.73;;;1.10;;
10657;SDS011;5377;43.276;26.930;2024-03-29T07:14:11;5.50;;;0.70;;
10657;SDS011;5377;43.276;26.930;2024-03-29T07:16:38;9.05;;;1.20;;
10657;SDS011;5377;43.276;26.930;2024-03-29T07:19:05;8.68;;;1.00;;
10657;SDS011;5377;43.276;26.930;2024-03-29T07:21:31;12.18;;;1.58;;
10657;SDS011;5377;43.276;26.930;2024-03-29T07:23:58;1.58;;;0.30;;
10657;SDS011;5377;43.276;26.930;2024-03-29T07:26:25;3.75;;;0.77;;
10657;SDS011;5377;43.276;26.930;2024-03-29T07:28:53;6.15;;;0.68;;
10657;SDS011;5377;43.276;26.930;2024-03-29T07:31:20;6.63;;;1.00;;
10657;SDS011;5377;43.276;26.930;2024-03-29T07:33:46;6.78;;;1.08;;
10657;SDS011;5377;43.276;26.930;2024-03-29T07:36:13;7.38;;;0.75;;
10657;SDS011;5377;43.276;26.930;2024-03-29T07:38:41;16.00;;;2.88;;
10657;SDS011;5377;43.276;26.930;2024-03-29T07:41:08;5.07;;;1.20;;
10657;SDS011;5377;43.276;26.930;2024-03-29T07:43:38;2.20;;;0.60;;
10657;SDS011;5377;43.276;26.930;2024-03-29T07:46:07;4.43;;;0.60;;
10657;SDS011;5377;43.276;26.930;2024-03-29T07:48:35;3.08;;;0.77;;
10657;SDS011;5377;43.276;26.930;2024-03-29T07:51:02;4.13;;;0.52;;
10657;SDS011;5377;43.276;26.930;2024-03-29T07:53:28;13.40;;;0.98;;
10657;SDS011;5377;43.276;26.930;2024-03-29T07:55:55;5.38;;;0.88;;
10657;SDS011;5377;43.276;26.930;2024-03-29T07:58:22;3.67;;;0.80;;
10657;SDS011;5377;43.276;26.930;2024-03-29T08:00:49;5.10;;;0.75;;
10657;SDS011;5377;43.276;26.930;2024-03-29T08:03:17;4.30;;;1.08;;
10657;SDS011;5377;43.276;26.930;2024-03-29T08:05:53;3.78;;;0.63;;
10657;SDS011;5377;43.276;26.930;2024-03-29T08:08:20;1.75;;;0.40;;
10657;SDS011;5377;43.276;26.930;2024-03-29T08:10:47;2.88;;;0.47;;
10657;SDS011;5377;43.276;26.930;2024-03-29T08:13:14;4.60;;;0.60;;
10657;SDS011;5377;43.276;26.930;2024-03-29T08:15:42;1.58;;;0.68;;
10657;SDS011;5377;43.276;26.930;2024-03-29T08:18:09;4.07;;;0.52;;
10657;SDS011;5377;43.276;26.930;2024-03-29T08:20:37;4.03;;;0.68;;
10657;SDS011;5377;43.276;26.930;2024-03-29T08:23:04;8.93;;;0.63;;
10657;SDS011;5377;43.276;26.930;2024-03-29T08:25:30;5.53;;;0.90;;
10657;SDS011;5377;43.276;26.930;2024-03-29T08:27:57;5.85;;;0.98;;
10657;SDS011;5377;43.276;26.930;2024-03-29T08:30:24;2.50;;;0.40;;
10657;SDS011;5377;43.276;26.930;2024-03-29T08:32:52;1.23;;;0.57;;
10657;SDS011;5377;43.276;26.930;2024-03-29T08:35:19;3.55;;;0.73;;
10657;SDS011;5377;43.276;26.930;2024-03-29T08:37:47;8.35;;;1.50;;
10657;SDS011;5377;43.276;26.930;2024-03-29T08:40:15;4.65;;;0.50;;
10657;SDS011;5377;43.276;26.930;2024-03-29T08:42:42;4.45;;;0.60;;
10657;SDS011;5377;43.276;26.930;2024-03-29T08:45:09;3.70;;;0.40;;
10657;SDS011;5377;43.276;26.930;2024-03-29T08:47:37;1.80;;;0.57;;
10657;SDS011;5377;43.276;26.930;2024-03-29T08:50:04;1.85;;;0.47;;
10657;SDS011;5377;43.276;26.930;2024-03-29T08:52:30;2.22;;;0.43;;
10657;SDS011;5377;43.276;26.930;2024-03-29T08:54:59;1.20;;;0.45;;
10657;SDS011;5377;43.276;26.930;2024-03-29T08:57:25;2.17;;;0.40;;
10657;SDS011;5377;43.276;26.930;2024-03-29T08:59:52;6.32;;;0.60;;
10657;SDS011;5377;43.276;26.930;2024-03-29T09:02:19;3.92;;;0.82;;
10657;SDS011;5377;43.276;26.930;2024-03-29T09:04:46;7.25;;;0.95;;
10657;SDS011;5377;43.276;26.930;2024-03-29T09:07:12;5.57;;;0.73;;
10657;SDS011;5377;43.276;26.930;2024-03-29T09:09:40;3.95;;;0.95;;
10657;SDS011;5377;43.276;26.930;2024-03-29T09:12:08;3.92;;;0.70;;
10657;SDS011;5377;43.276;26.930;2024-03-29T09:14:35;2.20;;;0.60;;
10657;SDS011;5377;43.276;26.930;2024-03-29T09:17:10;3.08;;;0.60;;
10657;SDS011;5377;43.276;26.930;2024-03-29T09:19:37;4.88;;;0.77;;
10657;SDS011;5377;43.276;26.930;2024-03-29T09:22:04;4.40;;;0.60;;
10657;SDS011;5377;43.276;26.930;2024-03-29T09:24:30;4.68;;;0.70;;
10657;SDS011;5377;43.276;26.930;2024-03-29T09:26:59;2.25;;;0.47;;
10657;SDS011;5377;43.276;26.930;2024-03-29T09:29:26;1.33;;;0.50;;
10657;SDS011;5377;43.276;26.930;2024-03-29T09:31:53;4.63;;;0.52;;
10657;SDS011;5377;43.276;26.930;2024-03-29T09:34:21;8.73;;;1.02;;
10657;SDS011;5377;43.276;26.930;2024-03-29T09:36:48;8.02;;;1.10;;
10657;SDS011;5377;43.276;26.930;2024-03-29T09:39:15;2.35;;;0.70;;
10657;SDS011;5377;43.276;26.930;2024-03-29T09:41:42;2.20;;;0.68;;
10657;SDS011;5377;43.276;26.930;2024-03-29T09:44:11;1.40;;;0.50;;
10657;SDS011;5377;43.276;26.930;2024-03-29T09:46:38;3.53;;;0.43;;
10657;SDS011;5377;43.276;26.930;2024-03-29T09:49:05;1.52;;;0.40;;
10657;SDS011;5377;43.276;26.930;2024-03-29T09:51:33;5.90;;;1.05;;
10657;SDS011;5377;43.276;26.930;2024-03-29T09:54:00;3.88;;;0.85;;
10657;SDS011;5377;43.276;26.930;2024-03-29T09:56:28;5.13;;;0.80;;
10657;SDS011;5377;43.276;26.930;2024-03-29T09:58:55;2.72;;;0.68;;
10657;SDS011;5377;43.276;26.930;2024-03-29T10:01:22;3.08;;;0.50;;
10657;SDS011;5377;43.276;26.930;2024-03-29T10:03:49;2.20;;;0.70;;
10657;SDS011;5377;43.276;26.930;2024-03-29T10:06:16;2.83;;;0.47;;
10657;SDS011;5377;43.276;26.930;2024-03-29T10:08:46;1.48;;;0.65;;
10657;SDS011;5377;43.276;26.930;2024-03-29T10:11:14;1.60;;;0.40;;
10657;SDS011;5377;43.276;26.930;2024-03-29T10:13:42;3.58;;;0.50;;
10657;SDS011;5377;43.276;26.930;2024-03-29T10:16:10;1.85;;;0.52;;
10657;SDS011;5377;43.276;26.930;2024-03-29T10:18:37;3.33;;;0.40;;
10657;SDS011;5377;43.276;26.930;2024-03-29T10:21:05;3.58;;;0.50;;
10657;SDS011;5377;43.276;26.930;2024-03-29T10:23:32;7.47;;;0.75;;
10657;SDS011;5377;43.276;26.930;2024-03-29T10:26:01;2.40;;;0.52;;
10657;SDS011;5377;43.276;26.930;2024-03-29T10:28:29;3.45;;;0.60;;
10657;SDS011;5377;43.276;26.930;2024-03-29T10:30:56;0.55;;;0.40;;
10657;SDS011;5377;43.276;26.930;2024-03-29T10:33:23;2.10;;;0.40;;
10657;SDS011;5377;43.276;26.930;2024-03-29T10:35:50;4.13;;;0.50;;
10657;SDS011;5377;43.276;26.930;2024-03-29T10:38:17;4.85;;;0.65;;
10657;SDS011;5377;43.276;26.930;2024-03-29T10:40:43;2.30;;;0.57;;
10657;SDS011;5377;43.276;26.930;2024-03-29T10:43:12;5.00;;;0.90;;
10657;SDS011;5377;43.276;26.930;2024-03-29T10:45:39;2.88;;;0.50;;
10657;SDS011;5377;43.276;26.930;2024-03-29T10:48:06;2.67;;;0.50;;
10657;SDS011;5377;43.276;26.930;2024-03-29T10:50:35;0.65;;;0.50;;
10657;SDS011;5377;43.276;26.930;2024-03-29T10:53:02;2.70;;;1.13;;
10657;SDS011;5377;43.276;26.930;2024-03-29T10:55:29;4.07;;;0.60;;
10657;SDS011;5377;43.276;26.930;2024-03-29T10:57:56;5.32;;;0.90;;
10657;SDS011;5377;43.276;26.930;2024-03-29T11:00:25;5.50;;;0.55;;
10657;SDS011;5377;43.276;26.930;2024-03-29T11:02:55;3.83;;;0.50;;
10657;SDS011;5377;43.276;26.930;2024-03-29T11:05:24;2.88;;;0.70;;
10657;SDS011;5377;43.276;26.930;2024-03-29T11:07:54;2.90;;;0.50;;
10657;SDS011;5377;43.276;26.930;2024-03-29T11:10:23;1.08;;;0.50;;
10657;SDS011;5377;43.276;26.930;2024-03-29T11:12:55;5.55;;;0.50;;
10657;SDS011;5377;43.276;26.930;2024-03-29T11:15:28;5.55;;;0.98;;
10657;SDS011;5377;43.276;26.930;2024-03-29T11:17:54;1.55;;;0.50;;
10657;SDS011;5377;43.276;26.930;2024-03-29T11:20:22;4.25;;;0.70;;
10657;SDS011;5377;43.276;26.930;2024-03-29T11:22:59;2.78;;;0.40;;
10657;SDS011;5377;43.276;26.930;2024-03-29T11:25:36;1.92;;;0.50;;
10657;SDS011;5377;43.276;26.930;2024-03-29T11:28:04;0.93;;;0.35;;
10657;SDS011;5377;43.276;26.930;2024-03-29T11:30:33;2.05;;;0.50;;
10657;SDS011;5377;43.276;26.930;2024-03-29T11:33:05;2.03;;;0.40;;
10657;SDS011;5377;43.276;26.930;2024-03-29T11:35:32;1.48;;;0.45;;
10657;SDS011;5377;43.276;26.930;2024-03-29T11:37:59;2.20;;;0.60;;
10657;SDS011;5377;43.276;26.930;2024-03-29T11:40:29;0.75;;;0.30;;
10657;SDS011;5377;43.276;26.930;2024-03-29T11:42:56;2.50;;;0.47;;
10657;SDS011;5377;43.276;26.930;2024-03-29T11:45:23;3.90;;;0.65;;
10657;SDS011;5377;43.276;26.930;2024-03-29T11:47:53;4.72;;;0.82;;
10657;SDS011;5377;43.276;26.930;2024-03-29T11:50:20;12.38;;;1.05;;
10657;SDS011;5377;43.276;26.930;2024-03-29T11:52:48;3.63;;;0.50;;
10657;SDS011;5377;43.276;26.930;2024-03-29T11:55:14;1.85;;;0.40;;
10657;SDS011;5377;43.276;26.930;2024-03-29T11:57:41;1.45;;;0.75;;
10657;SDS011;5377;43.276;26.930;2024-03-29T12:00:08;4.60;;;0.55;;
10657;SDS011;5377;43.276;26.930;2024-03-29T12:02:36;1.48;;;0.30;;
10657;SDS011;5377;43.276;26.930;2024-03-29T12:05:07;3.25;;;0.40;;
10657;SDS011;5377;43.276;26.930;2024-03-29T12:07:35;4.10;;;0.55;;
10657;SDS011;5377;43.276;26.930;2024-03-29T12:10:01;2.22;;;0.30;;
10657;SDS011;5377;43.276;26.930;2024-03-29T12:12:28;5.38;;;0.75;;
10657;SDS011;5377;43.276;26.930;2024-03-29T12:14:59;2.08;;;0.50;;
10657;SDS011;5377;43.276;26.930;2024-03-29T12:17:26;1.55;;;0.60;;
10657;SDS011;5377;43.276;26.930;2024-03-29T12:19:57;2.10;;;0.70;;
10657;SDS011;5377;43.276;26.930;2024-03-29T12:22:27;2.20;;;0.40;;
10657;SDS011;5377;43.276;26.930;2024-03-29T12:24:54;4.18;;;0.50;;
10657;SDS011;5377;43.276;26.930;2024-03-29T12:27:21;1.15;;;0.50;;
10657;SDS011;5377;43.276;26.930;2024-03-29T12:29:49;2.78;;;0.50;;
10657;SDS011;5377;43.276;26.930;2024-03-29T12:32:18;2.33;;;0.30;;
10657;SDS011;5377;43.276;26.930;2024-03-29T12:34:45;3.30;;;1.40;;
10657;SDS011;5377;43.276;26.930;2024-03-29T12:37:12;3.90;;;1.05;;
10657;SDS011;5377;43.276;26.930;2024-03-29T12:39:42;2.03;;;0.43;;
10657;SDS011;5377;43.276;26.930;2024-03-29T12:42:10;2.45;;;0.60;;
10657;SDS011;5377;43.276;26.930;2024-03-29T12:44:36;4.38;;;0.60;;
10657;SDS011;5377;43.276;26.930;2024-03-29T12:47:03;4.43;;;0.60;;
10657;SDS011;5377;43.276;26.930;2024-03-29T12:49:30;1.92;;;0.40;;
10657;SDS011;5377;43.276;26.930;2024-03-29T12:51:57;1.60;;;0.30;;
10657;SDS011;5377;43.276;26.930;2024-03-29T12:54:23;2.58;;;0.50;;
10657;SDS011;5377;43.276;26.930;2024-03-29T12:56:53;0.50;;;0.40;;
10657;SDS011;5377;43.276;26.930;2024-03-29T12:59:20;3.10;;;0.40;;
10657;SDS011;5377;43.276;26.930;2024-03-29T13:01:47;5.50;;;1.15;;
10657;SDS011;5377;43.276;26.930;2024-03-29T13:04:14;3.08;;;0.55;;
10657;SDS011;5377;43.276;26.930;2024-03-29T13:06:40;5.03;;;0.40;;
10657;SDS011;5377;43.276;26.930;2024-03-29T13:09:07;4.03;;;0.50;;
10657;SDS011;5377;43.276;26.930;2024-03-29T13:11:34;2.05;;;0.40;;
10657;SDS011;5377;43.276;26.930;2024-03-29T13:14:02;1.25;;;0.40;;
10657;SDS011;5377;43.276;26.930;2024-03-29T13:16:30;1.33;;;0.35;;
10657;SDS011;5377;43.276;26.930;2024-03-29T13:18:57;2.50;;;0.52;;
10657;SDS011;5377;43.276;26.930;2024-03-29T13:21:24;2.72;;;0.60;;
10657;SDS011;5377;43.276;26.930;2024-03-29T13:23:50;2.40;;;0.40;;
10657;SDS011;5377;43.276;26.930;2024-03-29T13:26:17;6.43;;;0.88;;
10657;SDS011;5377;43.276;26.930;2024-03-29T13:28:44;4.13;;;0.85;;
10657;SDS011;5377;43.276;26.930;2024-03-29T13:31:12;2.63;;;0.70;;
10657;SDS011;5377;43.276;26.930;2024-03-29T13:33:39;2.45;;;0.55;;
10657;SDS011;5377;43.276;26.930;2024-03-29T13:36:06;2.70;;;0.47;;
10657;SDS011;5377;43.276;26.930;2024-03-29T13:38:33;2.45;;;0.35;;
10657;SDS011;5377;43.276;26.930;2024-03-29T13:40:59;1.15;;;0.57;;
10657;SDS011;5377;43.276;26.930;2024-03-29T13:43:28;4.00;;;0.77;;
10657;SDS011;5377;43.276;26.930;2024-03-29T13:45:55;2.25;;;0.50;;
10657;SDS011;5377;43.276;26.930;2024-03-29T13:48:23;3.90;;;0.60;;
10657;SDS011;5377;43.276;26.930;2024-03-29T13:50:49;1.85;;;0.40;;
10657;SDS011;5377;43.276;26.930;2024-03-29T13:53:16;1.55;;;0.40;;
10657;SDS011;5377;43.276;26.930;2024-03-29T13:55:43;2.70;;;0.50;;
10657;SDS011;5377;43.276;26.930;2024-03-29T13:58:09;4.20;;;0.52;;
10657;SDS011;5377;43.276;26.930;2024-03-29T14:00:36;2.35;;;0.40;;
10657;SDS011;5377;43.276;26.930;2024-03-29T14:03:03;2.72;;;0.50;;
10657;SDS011;5377;43.276;26.930;2024-03-29T14:05:31;8.57;;;0.80;;
10657;SDS011;5377;43.276;26.930;2024-03-29T14:07:58;0.80;;;0.40;;
10657;SDS011;5377;43.276;26.930;2024-03-29T14:10:26;3.58;;;0.50;;
10657;SDS011;5377;43.276;26.930;2024-03-29T14:12:52;4.32;;;0.70;;
10657;SDS011;5377;43.276;26.930;2024-03-29T14:15:19;2.72;;;0.60;;
10657;SDS011;5377;43.276;26.930;2024-03-29T14:17:46;5.03;;;2.05;;
10657;SDS011;5377;43.276;26.930;2024-03-29T14:20:12;2.83;;;0.75;;
10657;SDS011;5377;43.276;26.930;2024-03-29T14:22:40;4.00;;;1.13;;
10657;SDS011;5377;43.276;26.930;2024-03-29T14:25:07;1.67;;;0.50;;
10657;SDS011;5377;43.276;26.930;2024-03-29T14:27:36;1.83;;;0.55;;
10657;SDS011;5377;43.276;26.930;2024-03-29T14:30:09;5.07;;;1.63;;
10657;SDS011;5377;43.276;26.930;2024-03-29T14:32:36;5.38;;;0.98;;
10657;SDS011;5377;43.276;26.930;2024-03-29T14:35:03;6.60;;;1.38;;
10657;SDS011;5377;43.276;26.930;2024-03-29T14:37:30;1.80;;;0.50;;
10657;SDS011;5377;43.276;26.930;2024-03-29T14:39:58;7.43;;;0.80;;
10657;SDS011;5377;43.276;26.930;2024-03-29T14:42:24;3.78;;;0.80;;